Time;durP1;ratioP1;P1;durP2;ratioP2;P2;SDS_P1;SDS_P2;PMS_P1;PMS_P2;Temp;Humidity;BMP_temperature;BMP_pressure;BME280_temperature;BME280_humidity;BME280_pressure;Samples;Min_cycle;Max_cycle;Signal;HPM_P1;HPM_P2
2022/11/14 00:00:59;;;;;;;10.68;7.13;;;;;;;2.50;85.62;97577.84;5092977;28;20056;-61
2022/11/14 00:03:26;;;;;;;9.38;5.85;;;;;;;2.46;85.78;97581.25;5092952;28;20059;-61
2022/11/14 00:05:53;;;;;;;13.18;6.40;;;;;;;2.50;85.94;97580.44;5092876;28;20402;-61
2022/11/14 00:08:24;;;;;;;13.07;6.57;;;;;;;2.54;85.73;97576.19;5092827;28;20079;-61
2022/11/14 00:10:51;;;;;;;10.93;6.65;;;;;;;2.52;85.65;97580.44;5092784;28;20074;-61
2022/11/14 00:13:20;;;;;;;11.52;7.07;;;;;;;2.48;85.48;97574.41;5092824;28;20052;-61
2022/11/14 00:15:53;;;;;;;10.00;5.72;;;;;;;2.57;84.61;97585.66;5092697;28;20463;-60
2022/11/14 00:18:22;;;;;;;10.13;5.82;;;;;;;2.42;84.87;97582.06;5092658;28;20426;-60
2022/11/14 00:20:52;;;;;;;15.07;7.18;;;;;;;2.38;84.83;97586.31;5092823;28;20059;-61
2022/11/14 00:23:20;;;;;;;15.52;6.43;;;;;;;2.41;85.22;97585.53;5092805;28;20044;-61
2022/11/14 00:25:48;;;;;;;9.23;5.95;;;;;;;2.40;85.28;97584.66;5092518;28;20425;-60
2022/11/14 00:28:15;;;;;;;9.75;6.53;;;;;;;2.43;85.43;97583.81;5092610;28;20395;-60
2022/11/14 00:30:47;;;;;;;10.65;6.60;;;;;;;2.32;84.80;97581.09;5092636;28;20508;-61
2022/11/14 00:33:15;;;;;;;12.95;6.88;;;;;;;2.25;84.74;97576.69;5092577;28;20089;-61
2022/11/14 00:35:51;;;;;;;10.00;6.32;;;;;;;2.20;84.98;97573.22;5092544;28;20048;-60
2022/11/14 00:38:18;;;;;;;14.02;6.95;;;;;;;2.15;85.04;97568.00;5092526;28;20048;-60
2022/11/14 00:40:45;;;;;;;8.88;5.85;;;;;;;2.11;85.19;97563.66;5092564;28;20048;-60
2022/11/14 00:43:13;;;;;;;8.65;6.38;;;;;;;2.08;85.32;97558.44;5092634;28;20089;-60
2022/11/14 00:45:42;;;;;;;10.05;5.85;;;;;;;2.10;85.80;97564.47;5092543;28;20048;-61
2022/11/14 00:48:10;;;;;;;12.15;6.72;;;;;;;2.13;87.01;97557.66;5093244;28;20157;-60
2022/11/14 00:50:38;;;;;;;14.23;7.18;;;;;;;2.08;87.07;97553.28;5096180;28;20044;-60
2022/11/14 00:53:07;;;;;;;12.95;6.75;;;;;;;2.09;87.14;97555.00;5096226;28;20486;-60
2022/11/14 00:55:35;;;;;;;13.05;6.72;;;;;;;2.09;87.80;97553.31;5096036;28;20044;-61
2022/11/14 00:58:02;;;;;;;12.93;7.55;;;;;;;2.15;88.41;97552.50;5095906;28;20048;-60
2022/11/14 01:00:30;;;;;;;12.05;7.25;;;;;;;2.18;88.35;97549.97;5096063;28;20059;-60
2022/11/14 01:02:57;;;;;;;11.55;7.53;;;;;;;2.32;87.75;97551.84;5095981;28;20055;-60
2022/11/14 01:05:25;;;;;;;10.63;6.70;;;;;;;2.39;87.62;97551.91;5096044;28;20048;-61
2022/11/14 01:07:53;;;;;;;10.98;6.80;;;;;;;2.45;87.22;97548.53;5095819;28;20051;-60
2022/11/14 01:10:22;;;;;;;12.32;7.10;;;;;;;2.44;87.55;97551.94;5095956;28;20464;-60
2022/11/14 01:12:50;;;;;;;16.90;7.60;;;;;;;2.50;87.81;97552.00;5095926;28;20414;-60
2022/11/14 01:15:26;;;;;;;9.25;6.75;;;;;;;2.56;87.70;97552.94;5095716;28;20071;-60
2022/11/14 01:17:54;;;;;;;14.85;7.38;;;;;;;2.60;87.21;97539.19;5094991;28;20084;-60
2022/11/14 01:20:21;;;;;;;16.58;7.60;;;;;;;2.59;87.43;97543.50;5095630;28;20047;-60
2022/11/14 01:22:48;;;;;;;13.60;7.55;;;;;;;2.66;87.53;97536.69;5095608;28;20047;-60
2022/11/14 01:25:15;;;;;;;10.88;6.55;;;;;;;2.70;87.30;97530.69;5095245;28;20052;-60
2022/11/14 01:27:44;;;;;;;10.77;7.20;;;;;;;2.72;87.24;97530.69;5095519;28;20142;-60
2022/11/14 01:30:13;;;;;;;14.70;7.53;;;;;;;2.70;87.11;97527.22;5095361;28;20055;-60
2022/11/14 01:32:40;;;;;;;12.35;7.45;;;;;;;2.77;87.44;97531.63;5095334;28;20070;-60
2022/11/14 01:35:08;;;;;;;10.90;7.43;;;;;;;2.81;87.11;97530.78;5095254;28;20048;-61
2022/11/14 01:37:35;;;;;;;8.63;6.40;;;;;;;2.78;87.30;97525.59;5095279;28;20406;-60
2022/11/14 01:40:03;;;;;;;10.32;6.95;;;;;;;2.78;87.49;97528.16;5095262;28;20043;-60
2022/11/14 01:42:30;;;;;;;10.43;6.95;;;;;;;2.77;87.52;97522.13;5095107;28;20044;-60
2022/11/14 01:44:58;;;;;;;11.55;6.72;;;;;;;2.81;87.37;97524.75;5095125;28;20044;-60
2022/11/14 01:47:29;;;;;;;12.68;6.47;;;;;;;2.81;86.93;97514.41;5095106;28;20546;-60
2022/11/14 01:49:59;;;;;;;11.15;6.68;;;;;;;2.80;86.83;97513.53;5094980;28;20048;-61
2022/11/14 01:52:30;;;;;;;13.00;6.45;;;;;;;2.82;86.49;97516.13;5094983;28;20085;-60
2022/11/14 01:55:01;;;;;;;11.95;7.07;;;;;;;2.83;86.59;97523.06;5094866;28;20083;-61
2022/11/14 01:57:29;;;;;;;;;;;;;;;2.82;86.67;97508.38;5095219;28;20062;-60
2022/11/14 02:00:03;;;;;;;10.55;6.75;;;;;;;2.78;86.65;97508.38;5094110;28;20106;-61
2022/11/14 02:02:30;;;;;;;12.60;7.65;;;;;;;2.77;85.89;97508.38;5094838;28;20410;-61
2022/11/14 02:05:01;;;;;;;11.80;6.65;;;;;;;2.80;85.64;97505.78;5094672;28;20079;-61
2022/11/14 02:07:32;;;;;;;12.52;7.47;;;;;;;2.81;85.92;97504.94;5094611;28;20048;-60
2022/11/14 02:10:01;;;;;;;11.25;5.65;;;;;;;2.79;85.61;97511.81;5094686;28;20044;-61
2022/11/14 02:12:28;;;;;;;11.65;6.53;;;;;;;2.73;85.93;97499.69;5094689;28;20074;-60
2022/11/14 02:14:59;;;;;;;12.40;6.25;;;;;;;2.70;85.66;97499.69;5094517;28;20050;-60
2022/11/14 02:17:27;;;;;;;9.98;6.78;;;;;;;2.59;85.20;97503.88;5094426;28;20085;-61
2022/11/14 02:20:00;;;;;;;18.02;5.63;;;;;;;2.58;85.41;97510.75;5094400;28;20105;-60
2022/11/14 02:22:29;;;;;;;11.75;5.72;;;;;;;2.52;85.26;97502.94;5094440;28;20048;-60
2022/11/14 02:24:57;;;;;;;11.23;6.25;;;;;;;2.47;85.34;97502.91;5094101;28;20048;-61
2022/11/14 02:27:25;;;;;;;12.05;6.82;;;;;;;2.47;85.50;97510.66;5094304;28;20044;-60
2022/11/14 02:29:52;;;;;;;10.82;6.80;;;;;;;2.48;85.46;97509.81;5094235;28;20460;-60
2022/11/14 02:32:19;;;;;;;10.65;5.85;;;;;;;2.46;85.02;97510.63;5094216;28;20059;-61
2022/11/14 02:34:46;;;;;;;10.93;6.35;;;;;;;2.38;84.99;97515.75;5094067;28;20052;-61
2022/11/14 02:37:13;;;;;;;12.85;6.20;;;;;;;2.29;85.53;97502.72;5094008;28;20055;-60
2022/11/14 02:39:42;;;;;;;9.80;6.28;;;;;;;2.22;85.45;97501.78;5094122;28;20402;-60
2022/11/14 02:42:09;;;;;;;10.63;5.90;;;;;;;2.16;86.00;97494.84;5094019;28;20048;-60
2022/11/14 02:44:37;;;;;;;10.23;6.50;;;;;;;2.08;87.12;97493.91;5094325;28;20048;-60
2022/11/14 02:47:04;;;;;;;12.10;6.63;;;;;;;2.11;87.20;97486.19;5093906;28;20044;-61
2022/11/14 02:49:31;;;;;;;10.40;6.05;;;;;;;2.10;86.79;97492.19;5093921;28;20494;-61
2022/11/14 02:51:58;;;;;;;13.20;6.50;;;;;;;2.12;87.21;97487.91;5094015;28;20097;-60
2022/11/14 02:54:25;;;;;;;14.80;6.20;;;;;;;2.13;86.77;97492.22;5093819;28;20131;-60
2022/11/14 02:56:54;;;;;;;11.02;5.90;;;;;;;2.08;86.80;97492.16;5093852;28;20083;-61
2022/11/14 02:59:23;;;;;;;10.77;5.78;;;;;;;2.10;87.19;97495.66;5093681;28;20080;-60
2022/11/14 03:01:50;;;;;;;11.82;6.28;;;;;;;2.07;86.94;97498.19;5093694;28;20084;-60
2022/11/14 03:04:17;;;;;;;11.35;6.63;;;;;;;2.09;86.94;97499.09;5093652;28;20047;-61
2022/11/14 03:06:44;;;;;;;10.68;6.13;;;;;;;2.07;86.92;97499.91;5093759;28;20040;-60
2022/11/14 03:09:12;;;;;;;10.82;6.03;;;;;;;2.05;86.87;97499.03;5093618;28;20123;-61
2022/11/14 03:11:39;;;;;;;13.38;6.40;;;;;;;2.01;87.01;97496.41;5093417;28;20052;-60
2022/11/14 03:14:08;;;;;;;12.00;6.47;;;;;;;2.10;87.61;97503.38;5093521;28;20055;-60
2022/11/14 03:16:35;;;;;;;8.43;5.95;;;;;;;2.17;86.95;97498.31;5093439;28;20044;-60
2022/11/14 03:19:02;;;;;;;10.32;6.07;;;;;;;2.21;86.19;97502.63;5093193;28;20051;-61
2022/11/14 03:21:30;;;;;;;9.98;6.28;;;;;;;2.23;85.22;97509.53;5093400;28;20498;-60
2022/11/14 03:23:57;;;;;;;10.73;6.60;;;;;;;2.16;85.24;97506.91;5093267;28;20052;-61
2022/11/14 03:26:24;;;;;;;10.27;5.68;;;;;;;2.09;85.22;97500.78;5093374;28;20059;-60
2022/11/14 03:28:54;;;;;;;9.07;5.75;;;;;;;1.99;84.87;97499.84;5093184;28;20048;-60
2022/11/14 03:31:22;;;;;;;9.43;5.78;;;;;;;1.87;85.24;97503.97;5093279;28;20044;-60
2022/11/14 03:33:50;;;;;;;8.93;5.75;;;;;;;1.80;85.55;97506.50;5093126;28;20501;-61
2022/11/14 03:36:17;;;;;;;9.75;6.38;;;;;;;1.76;86.77;97500.41;5093181;28;20044;-60
2022/11/14 03:38:45;;;;;;;9.18;5.75;;;;;;;1.74;86.53;97497.81;5093085;28;20106;-60
2022/11/14 03:41:12;;;;;;;10.55;6.47;;;;;;;1.71;86.28;97505.50;5093148;28;20040;-60
2022/11/14 03:43:39;;;;;;;7.10;5.35;;;;;;;1.69;86.38;97508.91;5093116;28;20134;-60
2022/11/14 03:46:06;;;;;;;9.95;5.85;;;;;;;1.74;86.23;97504.66;5093047;28;20059;-60
2022/11/14 03:48:35;;;;;;;11.90;6.53;;;;;;;1.77;86.01;97502.13;5092979;28;20098;-60
2022/11/14 03:51:02;;;;;;;10.95;6.28;;;;;;;1.75;85.98;97498.69;5093063;28;20083;-60
2022/11/14 03:53:29;;;;;;;10.80;6.35;;;;;;;1.75;86.18;97498.69;5093010;28;20044;-60
2022/11/14 03:55:56;;;;;;;11.02;6.18;;;;;;;1.77;86.18;97492.69;5093013;28;20040;-61
2022/11/14 03:58:24;;;;;;;11.50;5.97;;;;;;;1.83;86.42;97503.91;5092886;28;20084;-61
2022/11/14 04:00:51;;;;;;;8.90;5.65;;;;;;;1.84;86.04;97500.50;5092853;28;20055;-60
2022/11/14 04:03:19;;;;;;;11.18;5.43;;;;;;;1.86;85.97;97501.38;5092888;28;20044;-60
2022/11/14 04:05:47;;;;;;;11.77;6.32;;;;;;;1.91;85.91;97501.44;5092958;28;20436;-60
2022/11/14 04:08:14;;;;;;;9.23;5.78;;;;;;;1.91;85.74;97498.84;5092932;28;20493;-60
2022/11/14 04:10:41;;;;;;;11.43;5.65;;;;;;;1.90;85.63;97498.00;5092786;28;20044;-61
2022/11/14 04:13:09;;;;;;;10.05;5.80;;;;;;;1.88;85.00;97498.00;5092884;28;20079;-60
2022/11/14 04:15:36;;;;;;;14.25;5.90;;;;;;;1.87;84.76;97500.56;5092865;28;20095;-60
2022/11/14 04:18:03;;;;;;;10.57;5.43;;;;;;;1.82;85.33;97492.75;5092648;28;20044;-61
2022/11/14 04:20:30;;;;;;;11.02;5.55;;;;;;;1.88;85.27;97495.41;5092819;28;20052;-61
2022/11/14 04:22:59;;;;;;;12.40;5.97;;;;;;;1.87;85.12;97503.97;5093280;28;20063;-60
2022/11/14 04:25:26;;;;;;;9.73;6.05;;;;;;;1.84;84.83;97495.34;5096579;28;20083;-60
2022/11/14 04:27:53;;;;;;;9.15;5.25;;;;;;;1.85;84.72;97499.66;5096626;28;20048;-61
2022/11/14 04:30:21;;;;;;;13.32;5.60;;;;;;;1.81;85.33;97501.34;5097012;28;20067;-60
2022/11/14 04:32:48;;;;;;;14.45;6.93;;;;;;;1.79;85.83;97499.56;5096553;28;20048;-60
2022/11/14 04:35:15;;;;;;;9.45;5.72;;;;;;;1.69;86.07;97504.63;5096552;28;20044;-60
2022/11/14 04:37:43;;;;;;;9.88;6.15;;;;;;;1.71;86.23;97514.94;5096465;28;20413;-60
2022/11/14 04:40:12;;;;;;;10.52;5.90;;;;;;;1.75;86.33;97502.13;5096326;28;20054;-60
2022/11/14 04:42:39;;;;;;;11.07;6.07;;;;;;;1.78;85.75;97498.72;5096386;28;20052;-60
2022/11/14 04:45:08;;;;;;;12.52;5.85;;;;;;;1.79;85.50;97500.44;5096386;28;20139;-60
2022/11/14 04:47:35;;;;;;;10.48;5.03;;;;;;;1.69;85.40;97498.59;5096383;28;20496;-60
2022/11/14 04:50:03;;;;;;;10.55;6.55;;;;;;;1.70;86.77;97497.75;5096203;28;20131;-60
2022/11/14 04:52:30;;;;;;;15.15;6.22;;;;;;;1.62;86.63;97503.69;5096254;28;20056;-60
2022/11/14 04:54:57;;;;;;;11.45;6.18;;;;;;;1.61;86.74;97506.25;5096133;28;20052;-61
2022/11/14 04:57:26;;;;;;;10.52;5.80;;;;;;;1.65;86.78;97513.16;5096086;28;20044;-60
2022/11/14 04:59:54;;;;;;;10.50;6.82;;;;;;;1.71;86.93;97517.53;5096037;28;20059;-60
2022/11/14 05:02:21;;;;;;;10.73;6.28;;;;;;;1.71;87.02;97513.25;5095995;28;20075;-60
2022/11/14 05:04:48;;;;;;;12.70;6.68;;;;;;;1.69;87.55;97519.25;5095880;28;20050;-60
2022/11/14 05:07:17;;;;;;;11.70;6.13;;;;;;;1.73;87.47;97518.44;5096040;28;20077;-60
2022/11/14 05:09:44;;;;;;;10.18;5.78;;;;;;;1.79;86.97;97515.06;5095969;28;20456;-60
2022/11/14 05:12:11;;;;;;;11.95;6.88;;;;;;;1.82;86.24;97522.84;5095890;28;20395;-61
2022/11/14 05:14:40;;;;;;;10.50;5.45;;;;;;;1.85;85.84;97520.31;5095652;28;20040;-60
2022/11/14 05:17:07;;;;;;;8.90;5.38;;;;;;;1.85;85.89;97516.03;5095654;28;20091;-60
2022/11/14 05:19:35;;;;;;;12.45;6.50;;;;;;;1.90;85.79;97523.81;5095686;28;20052;-61
2022/11/14 05:22:02;;;;;;;9.45;5.97;;;;;;;1.96;85.69;97521.28;5095648;28;20105;-61
2022/11/14 05:24:30;;;;;;;11.93;6.63;;;;;;;1.99;85.88;97512.75;5095396;28;20052;-60
2022/11/14 05:26:58;;;;;;;11.93;6.30;;;;;;;1.98;85.76;97511.88;5095745;28;20416;-61
2022/11/14 05:29:26;;;;;;;17.35;5.80;;;;;;;1.95;85.45;97523.84;5095517;28;20097;-60
2022/11/14 05:31:55;;;;;;;9.38;6.10;;;;;;;1.95;85.50;97519.56;5095417;28;20105;-60
2022/11/14 05:34:22;;;;;;;14.95;6.72;;;;;;;1.94;85.89;97525.59;5094515;28;20044;-60
2022/11/14 05:36:49;;;;;;;9.60;5.45;;;;;;;1.95;85.53;97527.31;5095001;28;20052;-60
2022/11/14 05:39:17;;;;;;;12.25;6.45;;;;;;;1.99;86.38;97526.50;5095334;28;20406;-60
2022/11/14 05:41:44;;;;;;;12.15;7.45;;;;;;;2.05;86.38;97528.31;5095344;28;20110;-60
2022/11/14 05:44:12;;;;;;;14.80;6.05;;;;;;;2.12;85.82;97535.28;5095158;28;20054;-61
2022/11/14 05:46:39;;;;;;;11.20;6.93;;;;;;;2.18;85.31;97534.47;5095008;28;20044;-61
2022/11/14 05:49:07;;;;;;;10.80;6.32;;;;;;;2.38;85.77;97533.81;5095046;28;20045;-60
2022/11/14 05:51:34;;;;;;;17.08;7.75;;;;;;;3.17;86.08;97533.66;5095055;28;20501;-60
2022/11/14 05:54:02;;;;;;;11.52;7.18;;;;;;;4.29;81.81;97541.16;5095015;28;20048;-60
2022/11/14 05:56:29;;;;;;;9.27;5.68;;;;;;;5.30;77.36;97545.59;5094909;28;20091;-60
2022/11/14 05:58:57;;;;;;;7.40;4.72;;;;;;;6.18;73.43;97538.47;5094711;28;20044;-60
2022/11/14 06:01:24;;;;;;;6.93;4.50;;;;;;;7.07;67.34;97538.78;5094822;28;20105;-61
2022/11/14 06:03:52;;;;;;;6.13;4.45;;;;;;;7.90;63.99;97543.22;5094791;28;20083;-61
2022/11/14 06:06:21;;;;;;;5.63;4.13;;;;;;;8.68;60.97;97544.00;5094694;28;20044;-61
2022/11/14 06:08:49;;;;;;;5.63;4.05;;;;;;;9.48;59.50;97535.78;5094704;28;20069;-60
2022/11/14 06:11:18;;;;;;;6.22;3.95;;;;;;;10.49;58.16;97538.22;5094844;28;20497;-60
2022/11/14 06:13:46;;;;;;;5.63;3.80;;;;;;;11.30;53.97;97536.38;5094547;28;20087;-61
2022/11/14 06:16:15;;;;;;;7.22;3.92;;;;;;;11.80;51.50;97534.22;5094643;28;20486;-60
2022/11/14 06:18:43;;;;;;;4.43;3.42;;;;;;;12.33;50.57;97527.53;5094474;28;20048;-60
2022/11/14 06:21:12;;;;;;;4.40;3.70;;;;;;;13.05;49.33;97530.59;5094490;28;20501;-61
2022/11/14 06:23:43;;;;;;;4.05;3.22;;;;;;;13.93;48.20;97532.06;5094447;28;20394;-60
2022/11/14 06:26:17;;;;;;;4.93;3.60;;;;;;;14.76;46.05;97532.50;5094290;28;20052;-61
2022/11/14 06:28:44;;;;;;;6.15;3.97;;;;;;;15.51;44.89;97532.16;5094331;28;20051;-61
2022/11/14 06:31:11;;;;;;;4.85;3.20;;;;;;;16.57;43.19;97526.69;5094233;28;20474;-60
2022/11/14 06:33:38;;;;;;;3.42;2.80;;;;;;;17.40;41.27;97531.56;5094521;28;20089;-60
2022/11/14 06:36:08;;;;;;;8.75;3.83;;;;;;;18.12;39.50;97535.88;5094160;28;20440;-60
2022/11/14 06:38:37;;;;;;;4.00;3.30;;;;;;;18.86;38.54;97532.81;5094093;28;20059;-60
2022/11/14 06:41:07;;;;;;;4.53;3.15;;;;;;;19.53;37.27;97531.69;5094196;28;20448;-60
2022/11/14 06:43:35;;;;;;;4.28;2.95;;;;;;;20.30;35.90;97537.81;5094059;28;20536;-60
2022/11/14 06:46:03;;;;;;;3.22;2.90;;;;;;;20.90;34.15;97533.19;5093716;28;20044;-61
2022/11/14 06:48:31;;;;;;;3.28;2.97;;;;;;;21.34;33.83;97533.88;5093946;28;20075;-60
2022/11/14 06:50:59;;;;;;;4.32;3.47;;;;;;;21.80;33.19;97536.25;5093873;28;20050;-61
2022/11/14 06:53:29;;;;;;;5.32;3.28;;;;;;;22.27;32.19;97528.56;5093896;28;20058;-61
2022/11/14 06:55:58;;;;;;;3.40;2.78;;;;;;;22.80;31.34;97522.22;5093808;28;20450;-61
2022/11/14 06:58:28;;;;;;;4.20;3.20;;;;;;;23.15;31.06;97522.38;5093796;28;20052;-61
2022/11/14 07:00:55;;;;;;;4.03;3.27;;;;;;;23.50;30.60;97523.41;5093746;28;20498;-60
2022/11/14 07:03:22;;;;;;;4.00;3.30;;;;;;;23.90;30.09;97514.16;5093672;28;20281;-61
2022/11/14 07:05:50;;;;;;;3.47;2.88;;;;;;;24.13;29.96;97512.38;5093744;28;20043;-60
2022/11/14 07:08:17;;;;;;;4.18;2.75;;;;;;;24.67;29.49;97515.28;5093845;28;20048;-61
2022/11/14 07:10:44;;;;;;;4.18;3.33;;;;;;;25.15;28.74;97523.09;5093831;28;20083;-60
2022/11/14 07:13:12;;;;;;;3.47;3.10;;;;;;;25.44;28.47;97511.81;5093449;28;20048;-61
2022/11/14 07:15:40;;;;;;;4.15;3.10;;;;;;;25.72;28.39;97520.19;5093575;28;20048;-60
2022/11/14 07:18:07;;;;;;;6.82;3.35;;;;;;;25.97;28.23;97528.81;5093493;28;20402;-61
2022/11/14 07:20:35;;;;;;;4.38;3.72;;;;;;;26.16;27.92;97521.88;5093302;28;20437;-60
2022/11/14 07:23:02;;;;;;;5.03;3.80;;;;;;;25.86;27.94;97525.22;5093742;28;20070;-61
2022/11/14 07:25:29;;;;;;;5.47;3.58;;;;;;;25.79;28.16;97525.91;5093162;28;20048;-61
2022/11/14 07:27:57;;;;;;;4.57;3.33;;;;;;;25.78;28.62;97525.03;5093319;28;20044;-61
2022/11/14 07:30:25;;;;;;;4.25;3.42;;;;;;;26.02;27.80;97521.22;5093485;28;20055;-60
2022/11/14 07:32:57;;;;;;;4.40;3.40;;;;;;;26.17;28.54;97524.41;5093303;28;20093;-61
2022/11/14 07:35:25;;;;;;;4.30;3.20;;;;;;;26.12;29.02;97519.47;5093153;28;20047;-60
2022/11/14 07:37:52;;;;;;;4.15;3.72;;;;;;;26.20;28.46;97516.13;5093203;28;20044;-61
2022/11/14 07:40:19;;;;;;;5.55;4.28;;;;;;;26.36;27.96;97514.78;5093121;28;20048;-60
2022/11/14 07:42:47;;;;;;;3.70;3.30;;;;;;;26.56;28.17;97512.19;5093214;28;20070;-60
2022/11/14 07:45:14;;;;;;;4.95;4.20;;;;;;;26.73;28.05;97514.19;5093098;28;20131;-61
2022/11/14 07:47:41;;;;;;;5.10;3.95;;;;;;;26.91;28.05;97512.69;5093153;28;20055;-61
2022/11/14 07:50:10;;;;;;;5.28;3.85;;;;;;;26.73;28.27;97511.50;5093107;28;20048;-61
2022/11/14 07:52:37;;;;;;;4.57;3.80;;;;;;;26.64;28.16;97503.47;5093345;28;20090;-61
2022/11/14 07:55:05;;;;;;;3.50;3.20;;;;;;;25.58;29.40;97510.63;5093089;28;20044;-61
2022/11/14 07:57:32;;;;;;;3.22;2.92;;;;;;;24.35;31.11;97508.88;5093098;28;20098;-61
2022/11/14 07:59:59;;;;;;;5.18;4.38;;;;;;;22.96;33.18;97508.59;5097087;28;20083;-60
2022/11/14 08:02:26;;;;;;;6.75;4.70;;;;;;;21.63;35.59;97514.25;5097075;28;20404;-60
2022/11/14 08:04:53;;;;;;;4.15;3.38;;;;;;;20.56;37.50;97506.91;5097078;28;20048;-60
2022/11/14 08:07:22;;;;;;;5.05;3.88;;;;;;;19.53;39.94;97505.16;5097073;28;20494;-60
2022/11/14 08:09:49;;;;;;;5.43;4.20;;;;;;;18.75;41.51;97506.06;5097414;28;20514;-61
2022/11/14 08:12:16;;;;;;;6.60;5.00;;;;;;;18.04;43.42;97508.94;5097075;28;20044;-60
2022/11/14 08:14:43;;;;;;;6.47;4.82;;;;;;;17.49;44.92;97511.72;5097132;28;20452;-60
2022/11/14 08:17:11;;;;;;;6.55;4.97;;;;;;;16.82;46.77;97514.13;5096891;28;20050;-60
2022/11/14 08:19:38;;;;;;;5.93;4.47;;;;;;;16.42;48.66;97515.06;5096894;28;20135;-60
2022/11/14 08:22:07;;;;;;;5.60;4.80;;;;;;;16.09;50.01;97508.59;5096725;28;20051;-60
2022/11/14 08:24:36;;;;;;;6.18;4.45;;;;;;;16.01;51.33;97505.44;5096456;28;20052;-60
2022/11/14 08:27:03;;;;;;;6.18;4.55;;;;;;;15.96;51.54;97516.22;5096803;28;20048;-60
2022/11/14 08:29:30;;;;;;;6.85;4.93;;;;;;;15.86;52.32;97512.25;5096730;28;20095;-60
2022/11/14 08:31:57;;;;;;;9.32;4.85;;;;;;;15.85;51.77;97514.03;5096554;28;20135;-59
2022/11/14 08:34:27;;;;;;;8.43;4.90;;;;;;;16.14;51.61;97511.03;5096483;28;20044;-60
2022/11/14 08:36:55;;;;;;;10.73;6.35;;;;;;;16.35;52.26;97505.72;5096542;28;20510;-60
2022/11/14 08:39:23;;;;;;;9.95;5.32;;;;;;;16.35;52.79;97509.22;5096370;28;20410;-60
2022/11/14 08:41:51;;;;;;;11.63;6.55;;;;;;;16.16;53.84;97507.41;5096544;28;20055;-60
2022/11/14 08:44:18;;;;;;;9.75;6.25;;;;;;;16.10;53.47;97502.41;5096362;28;20052;-60
2022/11/14 08:46:45;;;;;;;8.93;5.80;;;;;;;16.09;53.96;97502.47;5096365;28;20105;-60
2022/11/14 08:49:12;;;;;;;8.13;5.57;;;;;;;16.24;54.31;97498.28;5096341;28;20044;-60
2022/11/14 08:51:39;;;;;;;8.15;5.68;;;;;;;16.31;54.14;97502.34;5096499;28;20452;-60
2022/11/14 08:54:06;;;;;;;6.45;5.20;;;;;;;16.32;53.46;97496.16;5096135;28;20486;-60
2022/11/14 08:56:33;;;;;;;6.97;5.78;;;;;;;16.29;52.70;97496.28;5096030;28;20383;-60
2022/11/14 08:59:04;;;;;;;8.68;5.43;;;;;;;16.19;53.27;97489.72;5096160;28;20048;-60
2022/11/14 09:01:32;;;;;;;6.25;5.07;;;;;;;16.06;53.60;97486.75;5095910;28;20135;-60
2022/11/14 09:04:00;;;;;;;9.07;5.80;;;;;;;16.16;54.17;97490.69;5096072;28;20399;-60
2022/11/14 09:06:27;;;;;;;8.48;5.72;;;;;;;16.27;53.71;97485.81;5095897;28;20471;-59
2022/11/14 09:08:54;;;;;;;8.00;5.53;;;;;;;16.07;54.30;97480.59;5095678;28;20047;-60
2022/11/14 09:11:22;;;;;;;11.02;6.20;;;;;;;16.13;52.55;97477.63;5095774;28;20040;-60
2022/11/14 09:13:49;;;;;;;9.63;6.03;;;;;;;15.79;54.03;97474.72;5095841;28;20048;-60
2022/11/14 09:16:17;;;;;;;11.30;6.93;;;;;;;15.47;54.85;97474.38;5095827;28;20460;-60
2022/11/14 09:18:44;;;;;;;8.25;6.30;;;;;;;15.19;55.35;97475.50;5095661;28;20088;-60
2022/11/14 09:21:12;;;;;;;9.45;6.88;;;;;;;14.96;55.90;97482.63;5095553;28;20095;-60
2022/11/14 09:23:40;;;;;;;8.15;5.57;;;;;;;14.72;57.46;97466.84;5095542;28;20040;-60
2022/11/14 09:26:09;;;;;;;9.23;5.82;;;;;;;14.70;57.64;97466.91;5095545;28;20048;-60
2022/11/14 09:28:37;;;;;;;11.48;6.80;;;;;;;14.71;57.43;97458.09;5095564;28;20051;-60
2022/11/14 09:31:05;;;;;;;10.27;6.82;;;;;;;14.63;58.12;97455.75;5095401;28;20044;-60
2022/11/14 09:33:34;;;;;;;7.72;5.22;;;;;;;14.68;57.99;97452.94;5095409;28;20052;-59
2022/11/14 09:36:03;;;;;;;8.38;5.85;;;;;;;14.49;57.73;97451.06;5095361;28;20089;-60
2022/11/14 09:38:31;;;;;;;15.20;6.30;;;;;;;14.46;58.26;97442.41;5095398;28;20044;-59
2022/11/14 09:41:12;;;;;;;8.82;6.50;;;;;;;14.46;58.94;97443.28;5095279;28;20052;-60
2022/11/14 09:43:55;;;;;;;10.05;6.15;;;;;;;14.52;58.59;97439.53;5095563;28;20486;-59
2022/11/14 09:46:25;;;;;;;10.40;6.75;;;;;;;14.60;58.62;97432.19;5095332;28;20543;-60
2022/11/14 09:48:54;;;;;;;;;;;;;;;14.43;59.01;97429.34;5095700;28;20041;-59
2022/11/14 09:51:23;;;;;;;9.40;5.57;;;;;;;14.30;59.65;97429.84;5095138;28;20002;-59
2022/11/14 09:53:55;;;;;;;11.55;5.38;;;;;;;14.37;60.17;97422.56;5095120;28;20501;-60
2022/11/14 09:56:25;;;;;;;7.38;5.78;;;;;;;14.45;60.05;97425.75;5095024;28;20040;-59
2022/11/14 09:58:53;;;;;;;9.02;5.57;;;;;;;14.29;59.67;97428.13;5094971;28;20052;-59
2022/11/14 10:01:32;;;;;;;9.57;5.95;;;;;;;14.23;59.38;97429.22;5094904;28;20062;-59
2022/11/14 10:04:10;;;;;;;8.00;6.18;;;;;;;14.25;59.11;97424.78;5094806;28;20084;-59
2022/11/14 10:06:49;;;;;;;9.32;4.97;;;;;;;14.35;58.77;97424.41;5094742;28;20496;-59
2022/11/14 10:09:44;;;;;;;6.50;5.03;;;;;;;14.28;58.06;97414.13;5094850;28;20054;-59
2022/11/14 10:12:18;;;;;;;8.88;5.40;;;;;;;14.29;57.98;97417.59;5094706;28;20051;-59
2022/11/14 10:15:05;;;;;;;7.03;5.47;;;;;;;14.45;58.89;97409.94;5094694;28;20098;-59
2022/11/14 10:17:49;;;;;;;8.55;5.55;;;;;;;14.62;59.15;97411.91;5094705;28;20048;-59
2022/11/14 10:20:24;;;;;;;7.75;5.22;;;;;;;14.66;58.92;97404.75;5094261;28;20146;-59
2022/11/14 10:23:15;;;;;;;6.28;5.25;;;;;;;14.81;57.70;97402.44;5094216;28;20478;-59
2022/11/14 10:25:52;;;;;;;8.82;5.53;;;;;;;14.91;57.41;97398.50;5094394;28;20080;-59
2022/11/14 10:28:40;;;;;;;7.22;5.00;;;;;;;14.89;58.12;97395.94;5094431;28;20406;-59
2022/11/14 10:31:20;;;;;;;7.93;5.05;;;;;;;15.03;56.94;97390.06;5094335;28;20075;-60
2022/11/14 10:33:56;;;;;;;11.15;5.43;;;;;;;15.02;57.18;97380.44;5094262;28;20135;-60
2022/11/14 10:36:34;;;;;;;6.15;5.30;;;;;;;15.07;57.75;97374.13;5094263;28;20044;-60
2022/11/14 10:39:09;;;;;;;7.18;5.65;;;;;;;14.99;57.72;97374.47;5094123;28;20048;-60
2022/11/14 10:41:37;;;;;;;8.85;5.53;;;;;;;14.92;57.03;97376.50;5093994;28;20102;-60
2022/11/14 10:44:08;;;;;;;10.30;5.55;;;;;;;15.04;57.68;97375.13;5094057;28;20121;-60
2022/11/14 10:46:39;;;;;;;7.47;5.38;;;;;;;15.19;56.70;97378.00;5094108;28;20472;-60
2022/11/14 10:49:16;;;;;;;9.02;6.10;;;;;;;15.10;57.33;97372.22;5094071;28;20051;-60
2022/11/14 10:51:50;;;;;;;8.45;6.22;;;;;;;15.19;56.06;97362.19;5094008;28;20048;-60
2022/11/14 10:54:22;;;;;;;7.70;5.45;;;;;;;15.23;55.92;97363.78;5093898;28;20122;-59
2022/11/14 10:56:51;;;;;;;9.32;5.55;;;;;;;15.20;56.17;97361.28;5093769;28;20040;-59
2022/11/14 10:59:19;;;;;;;8.18;5.97;;;;;;;15.31;56.11;97351.13;5093834;28;20101;-59
2022/11/14 11:01:55;;;;;;;7.38;5.15;;;;;;;15.42;55.88;97350.66;5093600;28;20485;-60
2022/11/14 11:04:26;;;;;;;9.60;5.57;;;;;;;15.56;55.12;97346.53;5093626;28;20048;-60
2022/11/14 11:06:57;;;;;;;7.68;5.20;;;;;;;15.46;55.01;97348.72;5093602;28;20127;-60
2022/11/14 11:12:16;;;;;;;8.05;5.22;;;;;;;15.34;54.96;97340.44;5093884;28;20121;-60
2022/11/14 11:14:43;;;;;;;7.03;5.70;;;;;;;15.31;55.59;97340.56;5093824;28;20127;-59
2022/11/14 11:17:23;;;;;;;8.85;6.05;;;;;;;15.41;55.55;97333.09;5093506;28;20044;-60
2022/11/14 11:19:50;;;;;;;7.82;5.80;;;;;;;15.35;56.15;97344.78;5093412;28;20093;-60
2022/11/14 11:22:29;;;;;;;7.57;5.22;;;;;;;15.31;54.82;97331.81;5093227;28;20135;-60
2022/11/14 11:24:56;;;;;;;7.57;5.32;;;;;;;15.38;55.05;97333.28;5093350;28;20483;-60
2022/11/14 11:27:26;;;;;;;6.07;4.47;;;;;;;15.47;55.11;97332.00;5093325;28;20109;-60
2022/11/14 11:30:17;;;;;;;8.55;5.25;;;;;;;15.49;54.67;97328.34;5093332;28;20047;-60
2022/11/14 11:32:44;;;;;;;6.95;5.53;;;;;;;15.64;54.18;97320.66;5092733;28;20101;-60
2022/11/14 11:35:13;;;;;;;6.40;4.90;;;;;;;15.59;54.62;97325.31;5093356;28;20074;-60
2022/11/14 11:37:47;;;;;;;6.68;5.50;;;;;;;15.55;54.92;97321.94;5093169;28;20502;-60
2022/11/14 11:40:19;;;;;;;9.23;5.90;;;;;;;15.51;54.11;97325.66;5093119;28;20056;-60
2022/11/14 11:42:51;;;;;;;7.88;6.10;;;;;;;15.56;54.12;97328.06;5093241;28;20121;-60
2022/11/14 11:45:19;;;;;;;8.10;6.30;;;;;;;15.46;54.25;97328.50;5093153;28;20164;-60